Time;durP1;ratioP1;P1;durP2;ratioP2;P2;SDS_P1;SDS_P2;PMS_P1;PMS_P2;Temp;Humidity;BMP_temperature;BMP_pressure;BME280_temperature;BME280_humidity;BME280_pressure;Samples;Min_cycle;Max_cycle;Signal;HPM_P1;HPM_P2
2023/12/26 00:01:27;;;;;;;5.70;3.13;;;6.10;99.90;;;;;;5020058;28;20390;-29
2023/12/26 00:03:54;;;;;;;6.20;3.33;;;6.20;99.90;;;;;;5020439;28;20184;-30
2023/12/26 00:06:21;;;;;;;9.47;5.10;;;6.20;99.90;;;;;;5013551;28;20185;-29
2023/12/26 00:08:47;;;;;;;8.37;3.47;;;6.20;99.90;;;;;;5028104;28;20285;-30
2023/12/26 00:11:13;;;;;;;8.17;4.47;;;6.30;99.90;;;;;;5018763;28;20648;-29
2023/12/26 00:13:39;;;;;;;7.87;4.33;;;6.30;99.90;;;;;;5006124;28;20197;-29
2023/12/26 00:16:05;;;;;;;6.37;4.10;;;6.30;99.90;;;;;;5029713;28;20178;-29
2023/12/26 00:18:31;;;;;;;8.57;3.67;;;6.30;99.90;;;;;;5048640;28;20214;-29
2023/12/26 00:20:57;;;;;;;4.50;2.80;;;6.30;99.90;;;;;;5030778;28;20189;-29
2023/12/26 00:23:22;;;;;;;2.03;1.47;;;6.30;99.90;;;;;;5030940;28;20208;-29
2023/12/26 00:25:48;;;;;;;3.57;1.50;;;6.30;99.90;;;;;;5030418;28;20263;-29
2023/12/26 00:28:17;;;;;;;1.37;1.20;;;6.30;99.90;;;;;;5024676;28;20281;-30
2023/12/26 00:30:43;;;;;;;3.10;1.90;;;6.20;99.90;;;;;;5023532;28;20179;-29
2023/12/26 00:33:09;;;;;;;4.43;1.60;;;6.20;99.90;;;;;;5023888;28;20186;-29
2023/12/26 00:35:35;;;;;;;2.53;1.50;;;6.20;99.90;;;;;;5022364;28;20269;-29
2023/12/26 00:38:01;;;;;;;3.57;1.70;;;6.20;99.90;;;;;;5023427;28;20185;-29
2023/12/26 00:40:27;;;;;;;5.10;1.90;;;6.20;99.90;;;;;;5011570;28;20190;-29
2023/12/26 00:42:53;;;;;;;3.77;1.70;;;6.20;99.90;;;;;;5010332;28;20197;-28
2023/12/26 00:45:22;;;;;;;3.27;1.70;;;6.30;99.90;;;;;;5010492;28;20174;-28
2023/12/26 00:47:48;;;;;;;3.33;1.93;;;6.20;99.90;;;;;;5004100;28;20301;-28
2023/12/26 00:50:16;;;;;;;3.60;1.63;;;6.20;99.90;;;;;;5008845;28;20216;-28
2023/12/26 00:52:43;;;;;;;3.40;2.20;;;6.20;99.90;;;;;;5017025;28;20182;-27
2023/12/26 00:55:09;;;;;;;3.83;2.60;;;6.20;99.90;;;;;;5017053;28;20189;-29
2023/12/26 00:57:36;;;;;;;5.37;2.37;;;6.20;99.90;;;;;;5024969;28;20216;-28
2023/12/26 01:00:06;;;;;;;5.43;2.60;;;6.10;99.90;;;;;;5007863;28;20212;-28
2023/12/26 01:02:32;;;;;;;4.13;2.17;;;6.10;99.90;;;;;;5011375;28;20294;-28
2023/12/26 01:04:57;;;;;;;4.70;2.07;;;6.10;99.90;;;;;;5013856;28;20264;-28
2023/12/26 01:07:23;;;;;;;3.60;1.80;;;6.10;99.90;;;;;;5017797;28;20183;-28
2023/12/26 01:09:49;;;;;;;4.37;1.80;;;6.10;99.90;;;;;;5041300;28;20215;-28
2023/12/26 01:12:15;;;;;;;3.17;1.60;;;6.10;99.90;;;;;;5025166;28;20193;-29
2023/12/26 01:14:41;;;;;;;3.63;1.80;;;6.10;99.90;;;;;;5014276;28;20174;-28
2023/12/26 01:17:07;;;;;;;4.07;1.60;;;6.10;99.90;;;;;;5030744;28;20181;-28
2023/12/26 01:19:33;;;;;;;2.87;1.60;;;6.10;99.90;;;;;;5025741;28;20223;-28
2023/12/26 01:21:59;;;;;;;3.53;1.73;;;6.10;99.90;;;;;;5006664;28;20237;-28
2023/12/26 01:24:25;;;;;;;4.27;1.97;;;6.00;99.90;;;;;;5032213;28;20217;-28
2023/12/26 01:26:51;;;;;;;5.13;3.07;;;6.00;99.90;;;;;;5021448;28;20654;-28
2023/12/26 01:29:17;;;;;;;4.37;2.80;;;6.10;99.90;;;;;;5005860;28;20214;-28
2023/12/26 01:31:43;;;;;;;4.60;2.80;;;6.10;99.90;;;;;;5028748;28;20182;-28
2023/12/26 01:34:09;;;;;;;5.33;2.40;;;6.00;99.90;;;;;;5016470;28;20198;-29
2023/12/26 01:36:35;;;;;;;5.40;2.47;;;6.00;99.90;;;;;;5028525;28;20196;-28
2023/12/26 01:39:01;;;;;;;3.60;2.13;;;6.00;99.90;;;;;;5033317;28;20299;-28
2023/12/26 01:41:27;;;;;;;2.67;1.80;;;6.00;99.90;;;;;;5026974;28;20300;-27
2023/12/26 01:43:53;;;;;;;3.93;2.03;;;5.90;99.90;;;;;;5015995;28;20178;-29
2023/12/26 01:46:20;;;;;;;4.30;2.20;;;5.90;99.90;;;;;;5016270;28;20193;-28
2023/12/26 01:48:50;;;;;;;3.13;2.30;;;5.90;99.90;;;;;;5015977;28;20220;-28
2023/12/26 01:51:17;;;;;;;4.93;2.27;;;6.00;99.90;;;;;;5031486;28;20185;-29
2023/12/26 01:53:43;;;;;;;3.53;2.00;;;6.10;99.90;;;;;;5028073;28;20181;-28
2023/12/26 01:56:11;;;;;;;4.70;2.67;;;6.10;99.90;;;;;;5028388;28;20181;-29
2023/12/26 01:58:38;;;;;;;3.43;1.93;;;6.20;99.90;;;;;;5022287;28;20697;-28
2023/12/26 02:01:04;;;;;;;5.27;1.73;;;6.20;99.90;;;;;;5018731;28;20364;-28
2023/12/26 02:03:30;;;;;;;4.10;1.70;;;6.20;99.90;;;;;;5046134;28;20261;-28
2023/12/26 02:05:58;;;;;;;4.63;2.00;;;6.20;99.90;;;;;;5011659;28;20229;-28
2023/12/26 02:08:24;;;;;;;2.63;1.53;;;6.20;99.90;;;;;;5042343;28;20217;-27
2023/12/26 02:10:50;;;;;;;5.40;2.43;;;6.20;99.90;;;;;;5014955;28;20174;-28
2023/12/26 02:13:16;;;;;;;2.27;1.60;;;6.20;99.90;;;;;;5006987;28;20202;-28
2023/12/26 02:15:42;;;;;;;2.83;1.40;;;6.20;99.90;;;;;;5009269;28;20178;-28
2023/12/26 02:18:09;;;;;;;2.77;1.63;;;6.20;99.90;;;;;;5020544;28;20203;-28
2023/12/26 02:20:35;;;;;;;3.60;1.60;;;6.30;99.90;;;;;;5013832;28;20178;-30
2023/12/26 02:23:01;;;;;;;3.33;1.80;;;6.30;99.90;;;;;;5000456;28;20271;-29
2023/12/26 02:25:28;;;;;;;4.20;1.70;;;6.30;99.90;;;;;;5014931;28;20189;-28
2023/12/26 02:27:54;;;;;;;3.47;1.57;;;6.30;99.90;;;;;;5019593;28;20252;-27
2023/12/26 02:30:23;;;;;;;2.87;1.50;;;6.40;99.90;;;;;;5014105;28;20280;-29
2023/12/26 02:32:50;;;;;;;3.53;1.53;;;6.40;99.90;;;;;;5022022;28;20303;-28
2023/12/26 02:35:17;;;;;;;2.93;1.50;;;6.50;99.90;;;;;;5010444;28;20235;-30
2023/12/26 02:37:43;;;;;;;4.90;1.60;;;6.50;99.90;;;;;;5014369;28;20177;-28
2023/12/26 02:40:09;;;;;;;3.63;1.80;;;6.50;99.90;;;;;;5015639;28;20182;-28
2023/12/26 02:42:35;;;;;;;2.70;1.60;;;6.50;99.90;;;;;;5018910;28;20189;-27
2023/12/26 02:45:01;;;;;;;5.73;2.30;;;6.60;99.90;;;;;;5017248;28;20190;-27
2023/12/26 02:47:27;;;;;;;3.50;2.17;;;6.70;99.90;;;;;;5033396;28;20193;-28
2023/12/26 02:49:52;;;;;;;4.20;2.30;;;6.80;99.90;;;;;;5018387;28;20293;-28
2023/12/26 02:52:18;;;;;;;6.60;2.40;;;7.00;99.90;;;;;;5034674;28;20178;-28
2023/12/26 02:54:45;;;;;;;6.43;2.40;;;7.10;99.90;;;;;;5017770;28;20190;-28
2023/12/26 02:57:10;;;;;;;4.40;2.47;;;7.20;99.90;;;;;;5027080;28;20283;-28
2023/12/26 02:59:36;;;;;;;3.70;2.00;;;7.20;99.90;;;;;;5015402;28;20256;-28
2023/12/26 03:02:02;;;;;;;6.47;2.00;;;7.20;99.90;;;;;;5018904;28;20181;-28
2023/12/26 03:04:28;;;;;;;2.93;1.40;;;7.30;99.90;;;;;;5035361;28;20178;-28
2023/12/26 03:06:54;;;;;;;3.37;1.63;;;7.30;99.90;;;;;;5027943;28;20192;-28
2023/12/26 03:09:20;;;;;;;4.37;1.70;;;7.30;99.90;;;;;;5028451;28;20218;-29
2023/12/26 03:11:46;;;;;;;2.93;1.50;;;7.30;99.90;;;;;;5010482;28;20227;-27
2023/12/26 03:14:13;;;;;;;3.10;1.47;;;7.30;99.90;;;;;;5030009;28;20272;-28
2023/12/26 03:16:39;;;;;;;4.83;1.87;;;7.40;99.90;;;;;;5022534;28;20190;-28
2023/12/26 03:19:05;;;;;;;6.73;1.67;;;7.40;99.90;;;;;;5018078;28;20213;-28
2023/12/26 03:21:31;;;;;;;3.70;1.47;;;7.50;99.90;;;;;;5013820;28;20217;-29
2023/12/26 03:23:57;;;;;;;4.93;1.53;;;7.50;99.90;;;;;;5020047;28;20215;-28
2023/12/26 03:26:24;;;;;;;2.73;1.53;;;7.40;99.90;;;;;;5021619;28;20182;-28
2023/12/26 03:28:52;;;;;;;4.17;1.53;;;7.50;99.90;;;;;;5033556;28;20229;-28
2023/12/26 03:31:18;;;;;;;3.00;1.20;;;7.50;99.90;;;;;;5032207;28;20214;-28
2023/12/26 03:33:44;;;;;;;3.67;1.30;;;7.40;99.90;;;;;;5032942;28;20189;-28
2023/12/26 03:36:10;;;;;;;4.90;1.60;;;7.50;99.90;;;;;;5022662;28;20177;-29
2023/12/26 03:38:37;;;;;;;4.67;1.80;;;7.50;99.90;;;;;;5021220;28;20237;-29
2023/12/26 03:41:03;;;;;;;3.57;1.70;;;7.50;99.90;;;;;;5009648;28;20187;-28
2023/12/26 03:43:29;;;;;;;5.37;2.00;;;7.50;99.90;;;;;;5037285;28;20178;-28
2023/12/26 03:45:55;;;;;;;4.57;1.50;;;7.50;99.90;;;;;;5025738;28;20186;-28
2023/12/26 03:48:20;;;;;;;1.90;1.30;;;7.50;99.90;;;;;;5017721;28;20297;-28
2023/12/26 03:50:47;;;;;;;2.47;1.50;;;7.50;99.90;;;;;;5017418;28;20205;-28
2023/12/26 03:53:13;;;;;;;5.43;1.40;;;7.50;99.90;;;;;;5013989;28;20216;-28
2023/12/26 03:55:40;;;;;;;2.33;1.40;;;7.50;99.90;;;;;;5040861;28;20175;-28
2023/12/26 03:58:06;;;;;;;2.53;1.50;;;7.50;99.90;;;;;;5015975;28;20223;-28
2023/12/26 04:00:32;;;;;;;4.27;1.60;;;7.50;99.90;;;;;;5015241;28;20687;-27
2023/12/26 04:02:57;;;;;;;2.80;1.40;;;7.50;99.90;;;;;;5023477;28;20209;-28
2023/12/26 04:05:24;;;;;;;3.00;1.53;;;7.60;99.90;;;;;;5016583;28;20290;-28
2023/12/26 04:07:50;;;;;;;2.73;1.73;;;7.50;99.90;;;;;;5021571;28;20310;-28
2023/12/26 04:10:16;;;;;;;3.23;1.37;;;7.50;99.90;;;;;;5036169;28;20181;-28
2023/12/26 04:12:42;;;;;;;3.90;1.20;;;7.60;99.90;;;;;;5024867;28;20185;-28
2023/12/26 04:15:08;;;;;;;3.87;1.40;;;7.60;99.90;;;;;;5017856;28;20218;-28
2023/12/26 04:17:35;;;;;;;3.47;1.20;;;7.60;99.90;;;;;;5026516;28;20178;-28
2023/12/26 04:20:02;;;;;;;5.00;1.40;;;7.60;99.90;;;;;;5016776;28;20716;-28
2023/12/26 04:22:28;;;;;;;1.53;1.17;;;7.60;99.90;;;;;;5031918;28;20178;-28
2023/12/26 04:24:54;;;;;;;3.03;1.30;;;7.60;99.90;;;;;;5023675;28;20185;-28
2023/12/26 04:27:20;;;;;;;3.87;1.67;;;7.60;99.90;;;;;;5026554;28;20182;-28
2023/12/26 04:29:46;;;;;;;5.77;1.60;;;7.60;99.90;;;;;;5015039;28;20205;-27
2023/12/26 04:32:12;;;;;;;2.30;1.30;;;7.60;99.90;;;;;;5014627;28;20182;-28
2023/12/26 04:34:38;;;;;;;1.37;1.10;;;7.50;99.90;;;;;;5033164;28;20231;-28
2023/12/26 04:37:04;;;;;;;7.17;1.43;;;7.50;99.90;;;;;;5011630;28;20295;-28
2023/12/26 04:39:30;;;;;;;5.10;1.60;;;7.40;99.90;;;;;;5028193;28;20229;-27
2023/12/26 04:41:57;;;;;;;3.23;1.67;;;7.40;99.90;;;;;;5015745;28;20201;-28
2023/12/26 04:44:24;;;;;;;5.50;2.07;;;7.30;99.90;;;;;;5024807;28;20243;-28
2023/12/26 04:46:51;;;;;;;7.03;1.80;;;7.30;99.90;;;;;;5042351;28;20249;-28
2023/12/26 04:49:16;;;;;;;3.23;1.50;;;7.30;99.90;;;;;;5014533;28;20220;-28
2023/12/26 04:51:43;;;;;;;3.97;1.70;;;7.20;99.90;;;;;;5009379;28;20174;-28
2023/12/26 04:54:09;;;;;;;4.13;1.40;;;7.20;99.90;;;;;;5021423;28;20186;-27
2023/12/26 04:56:43;;;;;;;2.77;1.57;;;7.20;99.90;;;;;;5027961;28;20221;-29
2023/12/26 04:59:09;;;;;;;2.83;1.43;;;7.20;99.90;;;;;;5010188;28;20216;-28
2023/12/26 05:01:41;;;;;;;3.20;1.70;;;7.20;99.90;;;;;;5023460;28;20273;-28
2023/12/26 05:04:09;;;;;;;3.27;1.67;;;7.20;99.90;;;;;;5027814;28;20208;-28
2023/12/26 05:06:36;;;;;;;3.47;2.27;;;7.20;99.90;;;;;;5009039;28;20183;-28
2023/12/26 05:09:02;;;;;;;3.77;2.50;;;7.20;99.90;;;;;;5026359;28;20662;-28
2023/12/26 05:11:28;;;;;;;4.33;1.60;;;7.20;99.90;;;;;;5019576;28;20256;-27
2023/12/26 05:13:54;;;;;;;5.70;2.03;;;7.20;99.90;;;;;;5029362;28;20193;-28
2023/12/26 05:16:21;;;;;;;4.30;1.73;;;7.20;99.90;;;;;;5022225;28;20296;-29
2023/12/26 05:18:47;;;;;;;3.70;2.00;;;7.10;99.90;;;;;;5012790;28;20224;-28
2023/12/26 05:21:21;;;;;;;6.20;1.80;;;7.10;99.90;;;;;;5022771;28;20186;-30
2023/12/26 05:23:47;;;;;;;4.17;2.17;;;7.20;99.90;;;;;;5016043;28;20187;-28
2023/12/26 05:26:14;;;;;;;5.93;1.87;;;7.10;99.90;;;;;;5014695;28;20191;-28
2023/12/26 05:28:42;;;;;;;7.40;2.47;;;7.10;99.90;;;;;;5008876;28;20213;-29
2023/12/26 05:31:08;;;;;;;6.40;2.03;;;7.20;99.90;;;;;;5017306;28;20212;-30
2023/12/26 05:33:34;;;;;;;4.07;1.40;;;7.20;99.90;;;;;;5026497;28;20257;-28
2023/12/26 05:36:02;;;;;;;4.37;1.73;;;7.20;99.90;;;;;;5008812;28;20178;-29
2023/12/26 05:38:29;;;;;;;6.70;2.00;;;7.10;99.90;;;;;;5009468;28;20213;-29
2023/12/26 05:40:54;;;;;;;3.97;1.67;;;7.10;99.90;;;;;;5016137;28;20205;-30
2023/12/26 05:43:20;;;;;;;3.57;1.90;;;7.10;99.90;;;;;;5017215;28;20182;-30
2023/12/26 05:45:46;;;;;;;5.03;2.10;;;7.10;99.90;;;;;;5022726;28;20174;-28
2023/12/26 05:48:12;;;;;;;4.03;1.60;;;7.10;99.90;;;;;;5016967;28;20286;-29
2023/12/26 05:50:38;;;;;;;5.97;1.70;;;7.10;99.90;;;;;;5024833;28;20182;-28
2023/12/26 05:53:05;;;;;;;4.27;1.80;;;7.10;99.90;;;;;;5015748;28;20182;-30
2023/12/26 05:55:30;;;;;;;3.73;1.90;;;7.10;99.90;;;;;;5016420;28;20177;-29
2023/12/26 05:57:56;;;;;;;3.73;1.60;;;7.10;99.90;;;;;;5023892;28;20176;-28
2023/12/26 06:00:23;;;;;;;3.37;1.47;;;7.10;99.90;;;;;;5015488;28;20174;-29
2023/12/26 06:02:49;;;;;;;6.07;1.93;;;7.10;99.90;;;;;;5010503;28;20182;-29
2023/12/26 06:05:16;;;;;;;7.13;2.20;;;7.10;99.90;;;;;;5018603;28;20188;-29
2023/12/26 06:07:42;;;;;;;3.00;1.70;;;7.10;99.90;;;;;;5006602;28;20201;-28
2023/12/26 06:10:08;;;;;;;5.97;2.30;;;7.10;99.90;;;;;;5006238;28;20202;-30
2023/12/26 06:12:36;;;;;;;4.37;2.00;;;7.10;99.90;;;;;;5016914;28;20268;-30
2023/12/26 06:15:02;;;;;;;4.10;1.70;;;7.10;99.90;;;;;;5015109;28;20183;-27
2023/12/26 06:17:30;;;;;;;4.97;1.63;;;7.10;99.90;;;;;;5011991;28;20243;-29
2023/12/26 06:19:58;;;;;;;3.70;1.70;;;7.10;99.90;;;;;;5043824;28;20213;-28
2023/12/26 06:22:24;;;;;;;6.13;2.10;;;7.10;99.90;;;;;;5026580;28;20179;-29
2023/12/26 06:24:50;;;;;;;7.73;2.40;;;7.10;99.90;;;;;;5029594;28;20177;-29
2023/12/26 06:27:17;;;;;;;8.67;2.30;;;7.10;99.90;;;;;;5037229;28;20206;-28
2023/12/26 06:29:44;;;;;;;4.80;1.97;;;7.10;99.90;;;;;;5011730;28;20255;-28
2023/12/26 06:32:10;;;;;;;6.77;2.20;;;7.00;99.90;;;;;;5010229;28;20186;-27
2023/12/26 06:34:36;;;;;;;4.40;1.63;;;7.00;99.90;;;;;;5013354;28;20179;-28
2023/12/26 06:37:02;;;;;;;5.43;2.17;;;7.00;99.90;;;;;;5015947;28;20205;-28
2023/12/26 06:39:31;;;;;;;6.10;1.80;;;7.00;99.90;;;;;;5030043;28;20209;-28
2023/12/26 06:41:57;;;;;;;4.37;1.80;;;7.00;99.90;;;;;;5012990;28;20214;-28
2023/12/26 06:44:22;;;;;;;3.27;2.10;;;7.00;99.90;;;;;;5031971;28;20206;-29
2023/12/26 06:46:48;;;;;;;7.47;2.57;;;6.90;99.90;;;;;;5016628;28;20273;-29
2023/12/26 06:49:17;;;;;;;4.07;2.03;;;6.90;99.90;;;;;;5037323;28;20220;-28
2023/12/26 06:51:46;;;;;;;4.60;2.30;;;6.90;99.90;;;;;;5019537;28;20175;-28
2023/12/26 06:54:13;;;;;;;4.73;2.40;;;6.90;99.90;;;;;;5042725;28;20204;-28
2023/12/26 06:56:39;;;;;;;4.37;2.33;;;6.90;99.90;;;;;;5036036;28;20170;-28
2023/12/26 06:59:05;;;;;;;4.27;2.10;;;6.90;99.90;;;;;;5012876;28;20284;-28
2023/12/26 07:01:33;;;;;;;5.43;2.17;;;6.90;99.90;;;;;;5034753;28;20186;-28
2023/12/26 07:04:00;;;;;;;4.50;2.00;;;6.80;99.90;;;;;;5003344;28;20237;-28
2023/12/26 07:06:27;;;;;;;4.83;2.13;;;6.80;99.90;;;;;;5032334;28;20177;-28
2023/12/26 07:08:53;;;;;;;4.20;2.10;;;6.80;99.90;;;;;;5021008;28;20283;-30
2023/12/26 07:11:19;;;;;;;4.07;1.73;;;6.80;99.90;;;;;;5030773;28;20650;-28
2023/12/26 07:13:44;;;;;;;4.90;2.50;;;6.80;99.90;;;;;;5029217;28;20641;-28
2023/12/26 07:16:10;;;;;;;6.67;2.13;;;6.80;99.90;;;;;;5025073;28;20274;-28
2023/12/26 07:18:36;;;;;;;4.93;2.20;;;6.80;99.90;;;;;;5059015;28;20205;-29
2023/12/26 07:21:02;;;;;;;8.17;2.37;;;6.80;99.90;;;;;;5028309;28;20239;-28
2023/12/26 07:23:28;;;;;;;6.00;2.40;;;6.80;99.90;;;;;;5012011;28;20186;-29
2023/12/26 07:25:54;;;;;;;3.93;2.27;;;6.80;99.90;;;;;;5015552;28;20272;-29
2023/12/26 07:28:19;;;;;;;4.00;2.10;;;6.80;99.90;;;;;;5018049;28;20206;-28
2023/12/26 07:30:45;;;;;;;5.07;2.10;;;6.80;99.90;;;;;;5015633;28;20201;-28
2023/12/26 07:33:11;;;;;;;5.83;2.07;;;6.90;99.90;;;;;;5029908;28;20175;-28
2023/12/26 07:35:38;;;;;;;4.57;2.13;;;6.90;99.90;;;;;;5017284;28;20265;-28
2023/12/26 07:38:04;;;;;;;4.27;1.93;;;7.00;99.90;;;;;;5022342;28;20190;-28
2023/12/26 07:40:32;;;;;;;5.30;2.20;;;7.00;99.90;;;;;;5050823;28;20204;-28
2023/12/26 07:42:57;;;;;;;3.27;1.93;;;7.00;99.90;;;;;;5034741;28;20186;-29
2023/12/26 07:45:25;;;;;;;5.67;2.10;;;7.00;99.90;;;;;;5037219;28;20203;-28
2023/12/26 07:47:52;;;;;;;6.80;2.10;;;7.00;99.90;;;;;;5043748;28;20205;-29
2023/12/26 07:50:18;;;;;;;5.67;2.70;;;7.00;99.90;;;;;;5027961;28;20189;-28
2023/12/26 07:52:44;;;;;;;5.30;1.80;;;7.00;99.90;;;;;;5032634;28;20177;-28
2023/12/26 07:55:11;;;;;;;5.70;1.90;;;7.10;99.90;;;;;;5019560;28;20185;-28
2023/12/26 07:57:38;;;;;;;3.63;1.80;;;7.10;99.90;;;;;;5026716;28;20192;-28
2023/12/26 08:00:04;;;;;;;3.53;1.80;;;7.10;99.90;;;;;;5024093;28;20201;-28
2023/12/26 08:02:38;;;;;;;3.83;1.80;;;7.10;99.90;;;;;;5035368;28;20186;-28
2023/12/26 08:05:04;;;;;;;4.87;1.90;;;7.20;99.90;;;;;;5042117;28;20220;-28
2023/12/26 08:07:30;;;;;;;7.67;1.87;;;7.10;99.90;;;;;;5041990;28;20251;-28
2023/12/26 08:09:55;;;;;;;6.03;1.93;;;7.20;99.90;;;;;;5043071;28;20202;-28
2023/12/26 08:12:21;;;;;;;4.70;1.80;;;7.20;99.90;;;;;;5019096;28;20178;-28
2023/12/26 08:14:47;;;;;;;4.17;1.77;;;7.20;99.90;;;;;;5012402;28;20261;-28
2023/12/26 08:17:13;;;;;;;6.87;2.07;;;7.20;99.90;;;;;;5015809;28;20179;-29
2023/12/26 08:19:38;;;;;;;2.70;2.00;;;7.30;99.90;;;;;;5011547;28;20237;-30
2023/12/26 08:22:04;;;;;;;4.57;1.80;;;7.30;99.90;;;;;;5050991;28;20185;-30
2023/12/26 08:24:30;;;;;;;5.30;2.27;;;7.30;99.90;;;;;;5016928;28;20198;-29
2023/12/26 08:26:57;;;;;;;3.50;2.10;;;7.30;99.90;;;;;;5011025;28;20189;-28
2023/12/26 08:29:23;;;;;;;5.50;2.73;;;7.40;99.90;;;;;;5011184;28;20229;-28
2023/12/26 08:31:49;;;;;;;6.30;3.00;;;7.40;99.90;;;;;;5020511;28;20388;-28
2023/12/26 08:34:15;;;;;;;3.93;1.90;;;7.40;99.90;;;;;;5015513;28;20183;-28
2023/12/26 08:36:41;;;;;;;5.70;2.50;;;7.50;99.90;;;;;;5022347;28;20181;-28
2023/12/26 08:39:07;;;;;;;5.50;2.97;;;7.60;99.90;;;;;;5025624;28;20267;-28
2023/12/26 08:41:34;;;;;;;5.13;2.50;;;7.60;99.90;;;;;;5014063;28;20191;-28
2023/12/26 08:44:03;;;;;;;7.50;3.10;;;7.70;99.90;;;;;;5036982;28;20661;-28
2023/12/26 08:46:30;;;;;;;7.13;2.40;;;7.70;99.90;;;;;;5021130;28;20226;-27
2023/12/26 08:48:56;;;;;;;4.33;2.47;;;7.70;99.90;;;;;;5017856;28;20218;-28
2023/12/26 08:51:22;;;;;;;5.20;2.77;;;7.80;99.90;;;;;;5028455;28;20189;-27
2023/12/26 08:53:49;;;;;;;7.50;2.90;;;7.90;99.90;;;;;;5016945;28;20639;-28
2023/12/26 08:56:15;;;;;;;5.63;3.00;;;7.90;99.90;;;;;;5033161;28;20205;-28
2023/12/26 08:58:41;;;;;;;7.80;3.80;;;7.90;99.90;;;;;;5014755;28;20206;-28
2023/12/26 09:01:09;;;;;;;8.10;3.70;;;7.90;99.90;;;;;;5010523;28;20202;-28
2023/12/26 09:03:35;;;;;;;9.63;4.63;;;7.90;99.90;;;;;;5024499;28;20186;-29
2023/12/26 09:06:01;;;;;;;11.50;5.93;;;7.90;99.90;;;;;;5022356;28;20189;-28
2023/12/26 09:08:27;;;;;;;16.10;6.93;;;7.90;99.90;;;;;;5025845;28;20216;-28
2023/12/26 09:10:53;;;;;;;9.53;4.20;;;8.00;99.90;;;;;;5040319;28;20169;-28
2023/12/26 09:13:21;;;;;;;12.43;4.63;;;8.00;99.90;;;;;;5018782;28;20174;-29
2023/12/26 09:15:48;;;;;;;8.03;3.00;;;8.00;99.90;;;;;;5009998;28;20266;-28
2023/12/26 09:18:16;;;;;;;6.13;2.67;;;8.00;99.90;;;;;;5016720;28;20224;-28
2023/12/26 09:20:41;;;;;;;9.87;5.20;;;8.00;99.90;;;;;;5016202;28;20178;-28
2023/12/26 09:23:07;;;;;;;5.87;2.43;;;8.00;99.90;;;;;;5007770;28;20198;-28
2023/12/26 09:25:33;;;;;;;4.70;2.60;;;8.10;99.90;;;;;;5016407;28;20277;-28
2023/12/26 09:27:59;;;;;;;20.47;8.13;;;8.10;99.90;;;;;;5050624;28;20210;-28
2023/12/26 09:30:25;;;;;;;14.20;5.87;;;8.20;99.90;;;;;;5040774;28;20178;-28
2023/12/26 09:32:50;;;;;;;3.83;2.03;;;8.20;99.90;;;;;;5034488;28;20260;-28
2023/12/26 09:35:16;;;;;;;3.80;2.10;;;8.20;99.90;;;;;;5016653;28;20187;-28
2023/12/26 09:37:42;;;;;;;4.47;2.00;;;8.20;99.90;;;;;;5022154;28;20177;-28
2023/12/26 09:40:10;;;;;;;5.43;1.90;;;8.20;99.90;;;;;;5023841;28;20302;-28
2023/12/26 09:42:36;;;;;;;4.03;2.40;;;8.30;99.90;;;;;;5034374;28;20180;-28
2023/12/26 09:45:03;;;;;;;5.57;2.77;;;8.30;99.90;;;;;;5035708;28;20185;-27
2023/12/26 09:47:32;;;;;;;4.60;2.80;;;8.30;99.90;;;;;;5007797;28;20232;-27
2023/12/26 09:49:58;;;;;;;5.57;3.70;;;8.30;99.90;;;;;;5032373;28;20240;-28
2023/12/26 09:52:25;;;;;;;6.00;3.43;;;8.40;99.90;;;;;;5014223;28;20218;-28
2023/12/26 09:54:54;;;;;;;4.87;2.90;;;8.40;99.90;;;;;;5032781;28;20186;-29
2023/12/26 09:57:21;;;;;;;5.30;2.30;;;8.40;99.90;;;;;;5032119;28;20196;-28
2023/12/26 09:59:47;;;;;;;6.87;3.87;;;8.50;99.90;;;;;;5031539;28;20220;-28
2023/12/26 10:02:14;;;;;;;5.90;2.60;;;8.50;99.90;;;;;;5028018;28;20183;-28
2023/12/26 10:04:40;;;;;;;5.43;2.40;;;8.50;99.90;;;;;;5018199;28;20185;-28
2023/12/26 10:07:06;;;;;;;2.97;2.07;;;8.50;99.90;;;;;;5021030;28;20202;-27
2023/12/26 10:09:32;;;;;;;5.33;2.13;;;8.60;99.90;;;;;;5047992;28;20240;-28
2023/12/26 10:11:58;;;;;;;4.70;2.33;;;8.60;99.90;;;;;;5032541;28;20189;-28
2023/12/26 10:14:30;;;;;;;5.97;2.60;;;8.60;99.90;;;;;;5009891;28;20198;-28
2023/12/26 10:16:57;;;;;;;6.60;3.00;;;8.60;99.90;;;;;;5045343;28;20182;-29
2023/12/26 10:19:24;;;;;;;7.53;3.67;;;8.60;99.90;;;;;;5031418;28;20237;-29
2023/12/26 10:21:51;;;;;;;7.17;3.03;;;8.60;99.90;;;;;;5028111;28;20181;-27
2023/12/26 10:24:21;;;;;;;6.70;3.17;;;8.60;99.90;;;;;;5032307;28;20186;-28
2023/12/26 10:26:47;;;;;;;5.20;2.70;;;8.70;99.90;;;;;;5014144;28;20188;-28
2023/12/26 10:29:14;;;;;;;4.47;2.53;;;8.70;99.90;;;;;;5028140;28;20240;-28
2023/12/26 10:31:41;;;;;;;5.60;1.93;;;8.70;99.90;;;;;;5028952;28;20202;-28
2023/12/26 10:34:17;;;;;;;5.43;2.27;;;8.70;99.90;;;;;;5016027;28;20178;-28
2023/12/26 10:36:48;;;;;;;7.37;2.60;;;8.80;99.90;;;;;;5036721;28;20184;-28
2023/12/26 10:39:14;;;;;;;5.07;2.30;;;8.80;99.90;;;;;;5034396;28;20209;-28
2023/12/26 10:41:48;;;;;;;4.67;2.83;;;8.80;99.90;;;;;;5015664;28;20239;-28
2023/12/26 10:44:17;;;;;;;7.93;3.00;;;8.90;99.90;;;;;;5048179;28;20190;-29
2023/12/26 10:46:44;;;;;;;4.90;1.90;;;8.90;99.90;;;;;;5027024;28;20179;-30
2023/12/26 10:49:26;;;;;;;6.67;2.60;;;9.00;99.90;;;;;;5028513;28;20228;-29
2023/12/26 10:51:53;;;;;;;4.83;2.10;;;9.00;99.90;;;;;;5016978;28;20175;-30
2023/12/26 10:54:20;;;;;;;2.67;1.80;;;9.10;99.90;;;;;;5035499;28;20221;-30
2023/12/26 10:56:49;;;;;;;3.97;1.77;;;9.10;99.90;;;;;;5035957;28;20186;-30
2023/12/26 10:59:16;;;;;;;4.73;2.23;;;9.20;99.90;;;;;;5032568;28;20268;-29
2023/12/26 11:01:43;;;;;;;6.60;2.20;;;9.20;99.90;;;;;;5036020;28;20176;-29
2023/12/26 11:04:09;;;;;;;4.73;1.87;;;9.30;99.90;;;;;;5019324;28;20200;-29
2023/12/26 11:06:36;;;;;;;4.93;2.10;;;9.30;99.90;;;;;;5022154;28;20186;-28
2023/12/26 11:09:02;;;;;;;4.20;2.53;;;9.30;99.90;;;;;;5038277;28;20215;-28
2023/12/26 11:11:28;;;;;;;4.30;1.80;;;9.30;99.90;;;;;;5033636;28;20676;-29
2023/12/26 11:13:55;;;;;;;5.40;2.20;;;9.40;99.90;;;;;;5039566;28;20401;-30
2023/12/26 11:16:21;;;;;;;5.50;2.03;;;9.40;99.90;;;;;;5035394;28;20184;-29
2023/12/26 11:18:47;;;;;;;4.47;1.80;;;9.40;99.90;;;;;;5048999;23;20220;-31
2023/12/26 11:21:15;;;;;;;4.83;1.90;;;9.50;99.90;;;;;;5004508;28;20184;-31
2023/12/26 11:23:41;;;;;;;11.97;5.03;;;9.50;99.90;;;;;;5013789;28;20276;-31
2023/12/26 11:26:09;;;;;;;4.77;2.10;;;9.60;99.90;;;;;;5034468;28;20282;-32
2023/12/26 11:28:35;;;;;;;4.10;1.90;;;9.60;99.90;;;;;;5031563;28;20221;-31
2023/12/26 11:31:01;;;;;;;5.43;1.80;;;9.70;99.90;;;;;;4998518;28;20178;-31
2023/12/26 11:33:27;;;;;;;5.03;1.67;;;9.70;99.90;;;;;;4997516;28;20192;-31
2023/12/26 11:35:53;;;;;;;4.43;1.60;;;9.80;99.90;;;;;;5011036;28;20172;-31
2023/12/26 11:38:19;;;;;;;4.13;1.73;;;9.90;99.90;;;;;;4995616;28;20194;-31
2023/12/26 11:40:45;;;;;;;4.70;1.90;;;10.00;99.90;;;;;;5007724;28;20182;-31
2023/12/26 11:43:13;;;;;;;3.60;1.60;;;10.00;99.90;;;;;;5007278;28;20229;-31
2023/12/26 11:45:39;;;;;;;5.97;1.70;;;10.00;99.90;;;;;;4982742;28;20185;-31
2023/12/26 11:48:05;;;;;;;5.63;1.60;;;10.00;99.90;;;;;;5000474;28;20214;-30
2023/12/26 11:50:31;;;;;;;4.53;1.53;;;10.00;99.90;;;;;;5011128;28;20206;-31
2023/12/26 11:52:57;;;;;;;2.43;1.37;;;10.00;99.90;;;;;;5009199;28;20197;-31
2023/12/26 11:55:23;;;;;;;3.73;1.50;;;10.00;99.90;;;;;;5009615;28;20204;-31
2023/12/26 11:57:48;;;;;;;5.13;1.90;;;10.10;99.90;;;;;;4995341;28;20187;-32
2023/12/26 12:00:14;;;;;;;4.47;1.30;;;10.10;99.90;;;;;;4985376;28;20218;-32
2023/12/26 12:02:40;;;;;;;2.97;1.37;;;10.10;99.90;;;;;;4995198;28;20201;-32
2023/12/26 12:05:06;;;;;;;4.10;1.37;;;10.20;99.90;;;;;;4995610;28;20188;-32
2023/12/26 12:07:32;;;;;;;6.90;1.90;;;10.10;99.90;;;;;;4994010;28;20185;-32
2023/12/26 12:10:10;;;;;;;3.17;1.40;;;10.20;99.90;;;;;;4976866;28;20253;-32
2023/12/26 12:12:35;;;;;;;4.17;1.40;;;10.20;99.90;;;;;;4976301;28;20259;-34
2023/12/26 12:15:02;;;;;;;2.90;1.37;;;10.20;99.90;;;;;;4992127;28;20223;-33
2023/12/26 12:17:28;;;;;;;3.33;1.40;;;10.20;99.90;;;;;;5010979;28;20226;-32
2023/12/26 12:19:54;;;;;;;2.70;1.57;;;10.10;99.90;;;;;;4976549;28;20242;-31
2023/12/26 12:22:24;;;;;;;3.20;1.30;;;10.10;99.90;;;;;;4993525;28;20647;-32
2023/12/26 12:24:50;;;;;;;4.67;1.60;;;10.10;99.90;;;;;;4999465;28;20186;-33
2023/12/26 12:27:16;;;;;;;3.20;1.40;;;10.10;99.90;;;;;;5007086;28;20197;-32
2023/12/26 12:30:01;;;;;;;2.97;1.80;;;10.10;99.90;;;;;;4990774;28;20224;-32
2023/12/26 12:32:36;;;;;;;2.77;1.37;;;10.10;99.90;;;;;;5009051;28;20280;-32
2023/12/26 12:35:18;;;;;;;7.67;2.50;;;10.10;99.90;;;;;;4994921;28;20259;-35
2023/12/26 12:37:47;;;;;;;3.67;1.60;;;10.20;99.90;;;;;;4983221;28;20225;-34
2023/12/26 12:40:13;;;;;;;5.13;2.73;;;10.20;99.90;;;;;;5006543;28;20230;-32
2023/12/26 12:42:39;;;;;;;4.40;1.90;;;10.20;99.90;;;;;;4978168;28;20237;-33
2023/12/26 12:45:05;;;;;;;5.83;3.57;;;10.20;99.90;;;;;;4994747;28;20217;-32
2023/12/26 12:47:32;;;;;;;2.60;1.53;;;10.20;99.90;;;;;;5012456;28;20261;-32
2023/12/26 12:49:58;;;;;;;1.97;1.30;;;10.30;99.90;;;;;;4993866;28;20298;-29
2023/12/26 12:52:24;;;;;;;4.07;1.50;;;10.50;99.90;;;;;;5013809;28;20185;-35